createdAt,value
2019-04-14T00:02:05.373Z,35.55
2019-04-14T00:04:38.461Z,35.95
2019-04-14T00:07:10.224Z,36.58
2019-04-14T00:09:43.054Z,35.88
2019-04-14T00:12:14.813Z,35.35
2019-04-14T00:14:46.896Z,34.83
2019-04-14T00:17:19.415Z,39.50
2019-04-14T00:19:52.379Z,35.35
2019-04-14T00:22:27.484Z,36.20
2019-04-14T00:24:57.515Z,39.58
2019-04-14T00:27:30.272Z,36.42
2019-04-14T00:30:03.259Z,42.20
2019-04-14T00:32:37.844Z,34.55
2019-04-14T00:35:14.659Z,35.78
2019-04-14T00:38:04.287Z,42.83
2019-04-14T00:40:37.506Z,40.50
2019-04-14T00:43:20.016Z,42.88
2019-04-14T00:46:00.976Z,44.30
2019-04-14T00:48:34.100Z,39.58
2019-04-14T00:51:06.951Z,39.60
2019-04-14T00:53:38.522Z,43.70
2019-04-14T00:56:12.860Z,43.25
2019-04-14T00:58:45.353Z,40.17
2019-04-14T01:01:17.577Z,39.38
2019-04-14T01:03:50.217Z,40.75
2019-04-14T01:06:22.945Z,44.20
2019-04-14T01:08:55.391Z,38.80
2019-04-14T01:11:27.195Z,37.67
2019-04-14T01:13:59.443Z,41.10
2019-04-14T01:16:31.930Z,38.50
2019-04-14T01:19:04.789Z,40.48
2019-04-14T01:21:37.086Z,44.95
2019-04-14T01:24:09.625Z,41.00
2019-04-14T01:26:42.089Z,45.10
2019-04-14T01:29:14.413Z,43.50
2019-04-14T01:31:47.126Z,42.85
2019-04-14T01:34:19.505Z,44.48
2019-04-14T01:36:51.830Z,41.75
2019-04-14T01:39:24.300Z,39.10
2019-04-14T01:41:56.457Z,38.80
2019-04-14T01:44:29.162Z,37.55
2019-04-14T01:47:00.967Z,35.50
2019-04-14T01:49:33.269Z,35.58
2019-04-14T01:52:23.189Z,37.23
2019-04-14T01:55:09.113Z,37.30
2019-04-14T01:57:48.418Z,35.13
2019-04-14T02:00:40.248Z,36.65
2019-04-14T02:03:12.917Z,36.08
2019-04-14T02:05:45.310Z,37.70
2019-04-14T02:08:17.742Z,35.15
2019-04-14T02:10:49.964Z,34.85
2019-04-14T02:13:22.523Z,38.55
2019-04-14T02:15:55.007Z,39.38
2019-04-14T02:18:27.577Z,38.45
2019-04-14T02:20:59.972Z,38.05
2019-04-14T02:23:32.373Z,34.73
2019-04-14T02:26:04.684Z,37.60
2019-04-14T02:28:37.567Z,39.48
2019-04-14T02:31:24.807Z,41.68
2019-04-14T02:34:07.496Z,44.30
2019-04-14T02:42:02.581Z,43.65
2019-04-14T02:46:59.934Z,42.00
2019-04-14T02:52:04.764Z,43.30
2019-04-14T02:54:45.909Z,41.60
2019-04-14T02:57:37.896Z,39.98
2019-04-14T03:00:07.725Z,44.65
2019-04-14T03:07:46.795Z,46.70
2019-04-14T03:10:22.303Z,50.17
2019-04-14T03:12:54.627Z,49.73
2019-04-14T03:15:27.968Z,47.53
2019-04-14T03:18:18.976Z,48.30
2019-04-14T03:20:32.443Z,48.10
2019-04-14T03:23:19.087Z,48.08
2019-04-14T03:25:43.300Z,47.43
2019-04-14T03:28:26.287Z,48.95
2019-04-14T03:34:08.236Z,45.98
2019-04-14T03:38:46.514Z,48.85
2019-04-14T03:43:41.548Z,46.68
2019-04-14T03:49:31.720Z,50.33
2019-04-14T03:52:02.482Z,47.43
2019-04-14T03:54:03.132Z,51.58
2019-04-14T03:56:49.215Z,53.20
2019-04-14T03:59:21.832Z,53.80
2019-04-14T04:01:54.436Z,50.20
2019-04-14T04:04:27.843Z,50.33
2019-04-14T04:06:59.667Z,51.00
2019-04-14T04:09:34.361Z,52.95
2019-04-14T04:12:07.386Z,49.00
2019-04-14T04:14:40.148Z,53.90
2019-04-14T04:17:16.819Z,53.98
2019-04-14T04:19:51.318Z,55.17
2019-04-14T04:22:41.239Z,52.85
2019-04-14T04:25:14.568Z,55.08
2019-04-14T04:27:52.635Z,60.10
2019-04-14T04:30:29.733Z,63.55
2019-04-14T04:33:17.767Z,65.72
2019-04-14T04:35:54.960Z,55.85
2019-04-14T04:38:34.220Z,54.50
2019-04-14T04:41:05.935Z,59.20
2019-04-14T04:43:38.729Z,52.98
2019-04-14T04:46:11.325Z,58.05
2019-04-14T04:48:43.722Z,56.95
2019-04-14T04:51:16.651Z,57.05
2019-04-14T04:53:48.371Z,58.40
2019-04-14T04:56:20.916Z,63.50
2019-04-14T04:58:52.380Z,60.10
2019-04-14T05:01:23.905Z,58.20
2019-04-14T05:03:55.742Z,57.05
2019-04-14T05:06:54.719Z,57.83
2019-04-14T05:09:38.840Z,56.13
2019-04-14T05:12:13.251Z,59.73
2019-04-14T05:15:03.587Z,57.60
2019-04-14T05:17:40.857Z,52.23
2019-04-14T05:20:14.022Z,57.45
2019-04-14T05:22:46.196Z,51.73
2019-04-14T05:25:18.890Z,51.73
2019-04-14T05:27:51.612Z,54.67
2019-04-14T05:30:24.306Z,52.45
2019-04-14T05:32:56.545Z,56.23
2019-04-14T05:35:29.111Z,54.45
2019-04-14T05:38:01.839Z,56.08
2019-04-14T05:40:34.639Z,56.60
2019-04-14T05:43:08.866Z,55.17
2019-04-14T05:45:41.633Z,56.90
2019-04-14T05:48:13.952Z,55.48
2019-04-14T05:50:46.909Z,52.38
2019-04-14T05:53:19.609Z,56.45
2019-04-14T05:55:52.574Z,59.83
2019-04-14T05:58:25.265Z,53.40
2019-04-14T06:00:58.005Z,59.20
2019-04-14T06:03:30.658Z,55.90
2019-04-14T06:06:02.174Z,51.18
2019-04-14T06:08:36.275Z,58.83
2019-04-14T06:11:07.817Z,58.30
2019-04-14T06:13:39.361Z,55.63
2019-04-14T06:16:11.843Z,55.05
2019-04-14T06:18:43.542Z,54.30
2019-04-14T06:21:15.137Z,55.28
2019-04-14T06:23:46.722Z,57.08
2019-04-14T06:26:18.321Z,56.02
2019-04-14T06:28:49.851Z,56.68
2019-04-14T06:31:29.012Z,57.33
2019-04-14T06:34:02.174Z,58.73
2019-04-14T06:36:53.599Z,63.25
2019-04-14T06:39:30.498Z,61.88
2019-04-14T06:42:02.417Z,61.18
2019-04-14T06:44:34.490Z,58.23
2019-04-14T06:47:06.570Z,65.50
2019-04-14T06:49:48.478Z,60.20
2019-04-14T06:52:11.639Z,57.40
2019-04-14T06:54:43.335Z,57.05
2019-04-14T06:57:17.087Z,58.70
2019-04-14T06:59:50.240Z,54.05
2019-04-14T07:02:21.783Z,52.38
2019-04-14T07:04:53.431Z,58.35
2019-04-14T07:07:24.982Z,58.08
2019-04-14T07:09:57.028Z,58.15
2019-04-14T07:12:28.628Z,61.48
2019-04-14T07:15:00.382Z,60.38
2019-04-14T07:17:32.459Z,60.03
2019-04-14T07:20:05.498Z,54.30
2019-04-14T07:22:38.013Z,55.52
2019-04-14T07:25:09.538Z,53.95
2019-04-14T07:27:41.081Z,57.83
2019-04-14T07:30:17.989Z,56.42
2019-04-14T07:32:54.548Z,55.95
2019-04-14T07:35:43.961Z,63.23
2019-04-14T07:38:17.132Z,61.48
2019-04-14T07:41:06.445Z,59.73
2019-04-14T07:43:45.378Z,65.10
2019-04-14T07:46:18.654Z,59.65
2019-04-14T07:48:57.646Z,60.75
2019-04-14T07:51:43.211Z,62.45
2019-04-14T07:56:49.136Z,64.82
2019-04-14T07:59:23.317Z,65.12
2019-04-14T08:01:56.614Z,58.45
2019-04-14T08:04:29.780Z,67.08
2019-04-14T08:07:01.464Z,59.98
2019-04-14T08:09:33.166Z,57.98
2019-04-14T08:12:05.140Z,67.05
2019-04-14T08:14:36.746Z,69.92
2019-04-14T08:17:08.405Z,67.17
2019-04-14T08:19:40.083Z,66.33
2019-04-14T08:22:11.610Z,67.97
2019-04-14T08:24:43.203Z,70.57
2019-04-14T08:27:14.774Z,66.80
2019-04-14T08:29:46.491Z,70.90
2019-04-14T08:32:18.039Z,71.22
2019-04-14T08:34:53.854Z,71.82
2019-04-14T08:37:25.359Z,74.12
2019-04-14T08:39:56.918Z,65.28
2019-04-14T08:42:46.480Z,60.50
2019-04-14T08:45:25.911Z,60.52
2019-04-14T08:47:59.015Z,64.42
2019-04-14T08:50:44.430Z,60.80
2019-04-14T08:53:26.770Z,50.73
2019-04-14T08:56:03.122Z,55.20
2019-04-14T08:58:51.445Z,54.00
2019-04-14T09:01:24.577Z,56.33
2019-04-14T09:03:58.507Z,53.00
2019-04-14T09:06:48.299Z,45.63
2019-04-14T09:09:25.887Z,51.73
2019-04-14T09:12:14.564Z,46.02
2019-04-14T09:14:37.160Z,49.05
2019-04-14T09:17:09.036Z,47.13
2019-04-14T09:19:41.196Z,58.68
2019-04-14T09:22:15.127Z,49.75
2019-04-14T09:24:46.829Z,48.33
2019-04-14T09:27:19.394Z,54.42
2019-04-14T09:29:54.310Z,53.23
2019-04-14T09:32:28.028Z,53.52
2019-04-14T09:34:59.830Z,54.25
2019-04-14T09:37:32.684Z,57.13
2019-04-14T09:40:04.845Z,56.25
2019-04-14T09:42:37.840Z,56.13
2019-04-14T09:45:09.365Z,55.67
2019-04-14T09:47:41.050Z,64.12
2019-04-14T09:50:13.547Z,59.70
2019-04-14T09:52:45.875Z,58.23
2019-04-14T09:55:17.584Z,62.25
2019-04-14T09:57:50.641Z,68.22
2019-04-14T10:00:22.593Z,55.98
2019-04-14T10:02:54.621Z,60.78
2019-04-14T10:05:26.265Z,59.40
2019-04-14T10:07:59.948Z,55.73
2019-04-14T10:13:04.457Z,60.15
2019-04-14T10:15:37.134Z,62.83
2019-04-14T10:18:08.753Z,80.57
2019-04-14T10:20:40.319Z,63.00
2019-04-14T10:23:12.486Z,62.38
2019-04-14T10:25:44.637Z,72.17
2019-04-14T10:28:16.353Z,72.27
2019-04-14T10:30:49.861Z,71.33
2019-04-14T10:33:21.437Z,58.40
2019-04-14T10:35:55.707Z,65.12
2019-04-14T10:38:27.287Z,63.83
2019-04-14T10:40:59.114Z,63.45
2019-04-14T10:43:30.865Z,56.80
2019-04-14T10:46:03.022Z,63.35
2019-04-14T10:48:34.709Z,63.92
2019-04-14T10:51:10.134Z,56.50
2019-04-14T10:53:44.313Z,58.00
2019-04-14T10:56:15.960Z,57.85
2019-04-14T10:58:47.823Z,56.18
2019-04-14T11:01:19.633Z,55.63
2019-04-14T11:03:51.164Z,52.58
2019-04-14T11:06:27.528Z,51.80
2019-04-14T11:09:00.886Z,53.87
2019-04-14T11:11:34.843Z,51.73
2019-04-14T11:14:06.450Z,50.23
2019-04-14T11:16:38.141Z,48.02
2019-04-14T11:19:09.786Z,49.55
2019-04-14T11:21:42.782Z,47.43
2019-04-14T11:24:14.977Z,46.25
2019-04-14T11:26:46.762Z,47.65
2019-04-14T11:29:18.390Z,44.95
2019-04-14T11:31:55.531Z,48.68
2019-04-14T11:34:31.594Z,42.05
2019-04-14T11:37:08.101Z,43.98
2019-04-14T11:39:41.455Z,41.20
2019-04-14T11:42:15.297Z,40.08
2019-04-14T11:44:48.345Z,44.30
2019-04-14T11:47:20.743Z,39.50
2019-04-14T11:50:03.218Z,40.15
2019-04-14T11:52:49.052Z,44.75
2019-04-14T11:55:23.113Z,43.35
2019-04-14T11:57:54.831Z,44.60
2019-04-14T12:00:44.147Z,39.30
2019-04-14T12:03:26.742Z,39.80
2019-04-14T12:06:00.161Z,41.73
2019-04-14T12:08:46.353Z,39.78
2019-04-14T12:11:18.089Z,41.55
2019-04-14T12:13:50.810Z,40.67
2019-04-14T12:16:23.578Z,37.88
2019-04-14T12:18:55.231Z,44.42
2019-04-14T12:21:26.882Z,38.23
2019-04-14T12:23:58.553Z,39.20
2019-04-14T12:26:30.231Z,38.28
2019-04-14T12:29:03.560Z,40.83
2019-04-14T12:31:35.339Z,37.58
2019-04-14T12:34:09.739Z,42.85
2019-04-14T12:36:41.416Z,38.25
2019-04-14T12:39:22.042Z,40.50
2019-04-14T12:41:55.170Z,37.25
2019-04-14T12:44:44.018Z,40.10
2019-04-14T12:47:23.232Z,40.38
2019-04-14T12:50:05.680Z,42.20
2019-04-14T12:52:38.429Z,38.50
2019-04-14T12:55:11.584Z,42.13
2019-04-14T12:57:51.168Z,39.63
2019-04-14T13:00:34.628Z,40.12
2019-04-14T13:03:07.323Z,39.23
2019-04-14T13:05:39.249Z,40.38
2019-04-14T13:08:11.239Z,41.68
2019-04-14T13:10:42.963Z,46.70
2019-04-14T13:13:16.703Z,40.40
2019-04-14T13:15:48.357Z,39.70
2019-04-14T13:18:23.220Z,39.23
2019-04-14T13:20:54.801Z,38.42
2019-04-14T13:23:26.340Z,35.03
2019-04-14T13:25:58.300Z,37.85
2019-04-14T13:28:30.423Z,37.90
2019-04-14T13:31:02.061Z,39.83
2019-04-14T13:33:33.633Z,38.42
2019-04-14T13:36:05.567Z,39.65
2019-04-14T13:38:37.071Z,40.25
2019-04-14T13:41:08.618Z,40.92
2019-04-14T13:43:40.241Z,37.35
2019-04-14T13:46:12.034Z,38.80
2019-04-14T13:48:43.591Z,38.75
2019-04-14T13:51:15.157Z,37.00
2019-04-14T13:53:48.352Z,40.33
2019-04-14T13:56:20.125Z,39.18
2019-04-14T13:58:51.657Z,40.35
2019-04-14T14:01:23.236Z,35.85
2019-04-14T14:03:55.150Z,35.58
2019-04-14T14:06:27.770Z,40.40
2019-04-14T14:08:59.378Z,39.63
2019-04-14T14:11:32.590Z,40.50
2019-04-14T14:17:01.038Z,39.63
2019-04-14T14:19:40.502Z,38.38
2019-04-14T14:22:13.678Z,40.20
2019-04-14T14:24:52.976Z,38.25
2019-04-14T14:27:24.505Z,44.03
2019-04-14T14:29:56.168Z,44.40
2019-04-14T14:32:29.261Z,38.10
2019-04-14T14:35:00.847Z,40.40
2019-04-14T14:37:32.444Z,42.17
2019-04-14T14:40:06.448Z,43.60
2019-04-14T14:42:38.239Z,43.48
2019-04-14T14:45:12.455Z,42.78
2019-04-14T14:47:47.766Z,42.45
2019-04-14T14:50:21.160Z,39.67
2019-04-14T14:52:52.731Z,43.68
2019-04-14T14:55:24.302Z,43.08
2019-04-14T14:57:55.998Z,43.42
2019-04-14T15:00:30.184Z,44.40
2019-04-14T15:03:01.755Z,42.53
2019-04-14T15:05:33.268Z,40.65
2019-04-14T15:08:04.874Z,43.25
2019-04-14T15:10:37.405Z,44.00
2019-04-14T15:13:08.963Z,43.78
2019-04-14T15:15:40.593Z,45.55
2019-04-14T15:18:12.182Z,46.35
2019-04-14T15:20:44.795Z,43.80
2019-04-14T15:23:24.670Z,46.63
2019-04-14T15:25:50.717Z,47.15
2019-04-14T15:28:22.374Z,46.30
2019-04-14T15:30:53.994Z,46.13
2019-04-14T15:33:25.666Z,50.33
2019-04-14T15:35:58.303Z,47.53
2019-04-14T15:38:30.198Z,45.85
2019-04-14T15:41:01.835Z,44.45
2019-04-14T15:43:34.517Z,46.00
2019-04-14T15:46:06.064Z,43.65
2019-04-14T15:48:37.680Z,44.80
2019-04-14T15:51:10.198Z,41.55
2019-04-14T15:53:41.733Z,46.25
2019-04-14T15:56:15.021Z,46.02
2019-04-14T15:58:51.335Z,43.65
2019-04-14T16:01:34.605Z,39.00
2019-04-14T16:04:10.838Z,40.43
2019-04-14T16:06:44.095Z,45.63
2019-04-14T16:09:24.197Z,48.40
2019-04-14T16:12:15.396Z,43.30
2019-04-14T16:15:03.946Z,44.10
2019-04-14T16:17:47.966Z,46.02
2019-04-14T16:20:21.216Z,46.92
2019-04-14T16:22:55.231Z,45.43
2019-04-14T16:25:36.746Z,43.52
2019-04-14T16:28:09.863Z,48.13
2019-04-14T16:31:01.569Z,42.73
2019-04-14T16:33:40.527Z,48.75
2019-04-14T16:36:12.087Z,44.60
2019-04-14T16:38:43.927Z,47.55
2019-04-14T16:41:16.641Z,47.88
2019-04-14T16:43:48.228Z,49.30
2019-04-14T16:46:19.798Z,46.95
2019-04-14T16:48:51.378Z,45.23
2019-04-14T16:51:42.895Z,44.18
2019-04-14T16:54:19.213Z,46.15
2019-04-14T16:57:09.164Z,46.58
2019-04-14T16:59:44.274Z,41.60
2019-04-14T17:02:15.882Z,40.25
2019-04-14T17:04:47.534Z,49.33
2019-04-14T17:07:20.428Z,45.33
2019-04-14T17:09:51.983Z,41.70
2019-04-14T17:12:23.680Z,41.15
2019-04-14T17:14:59.899Z,45.50
2019-04-14T17:17:42.083Z,40.92
2019-04-14T17:20:21.306Z,42.38
2019-04-14T17:23:00.734Z,40.65
2019-04-14T17:25:33.843Z,40.70
2019-04-14T17:28:09.986Z,39.53
2019-04-14T17:30:43.082Z,36.80
2019-04-14T17:33:20.270Z,38.58
2019-04-14T17:35:54.467Z,37.30
2019-04-14T17:38:27.555Z,35.98
2019-04-14T17:41:18.814Z,36.58
2019-04-14T17:44:08.304Z,35.50
2019-04-14T17:46:47.137Z,38.70
2019-04-14T17:49:23.265Z,37.35
2019-04-14T17:52:13.523Z,44.23
2019-04-14T17:54:49.381Z,39.98
2019-04-14T17:57:34.707Z,42.62
2019-04-14T18:03:05.023Z,42.50
2019-04-14T18:05:38.167Z,45.83
2019-04-14T18:08:20.269Z,40.35
2019-04-14T18:11:03.011Z,45.33
2019-04-14T18:13:36.114Z,42.13
2019-04-14T18:16:15.216Z,41.28
2019-04-14T18:18:54.423Z,42.00
2019-04-14T18:21:26.003Z,39.85
2019-04-14T18:23:57.551Z,40.28
2019-04-14T18:26:30.155Z,45.35
2019-04-14T18:29:19.604Z,38.80
2019-04-14T18:31:55.617Z,46.98
2019-04-14T18:34:31.814Z,38.80
2019-04-14T18:37:07.961Z,40.45
2019-04-14T18:39:57.441Z,38.88
2019-04-14T18:42:36.394Z,42.13
2019-04-14T18:45:17.555Z,38.13
2019-04-14T18:47:50.694Z,39.15
2019-04-14T18:50:38.904Z,39.50
2019-04-14T18:53:18.353Z,37.85
2019-04-14T18:55:51.424Z,38.60
2019-04-14T18:58:36.720Z,40.67
2019-04-14T19:01:12.625Z,37.40
2019-04-14T19:03:45.385Z,48.65
2019-04-14T19:06:16.952Z,37.78
2019-04-14T19:08:52.536Z,45.65
2019-04-14T19:11:42.065Z,45.48
2019-04-14T19:14:16.177Z,49.55
2019-04-14T19:16:55.316Z,42.33
2019-04-14T19:19:26.935Z,48.68
2019-04-14T19:22:00.389Z,51.63
2019-04-14T19:24:31.923Z,53.98
2019-04-14T19:27:03.534Z,54.10
2019-04-14T19:29:35.053Z,48.48
2019-04-14T19:32:06.589Z,50.78
2019-04-14T19:34:38.135Z,47.70
2019-04-14T19:37:13.216Z,58.20
2019-04-14T19:42:18.640Z,47.48
2019-04-14T19:44:50.182Z,48.02
2019-04-14T19:47:21.747Z,51.23
2019-04-14T19:49:54.434Z,53.87
2019-04-14T19:52:25.902Z,52.25
2019-04-14T19:54:57.386Z,51.80
2019-04-14T19:57:29.055Z,50.52
2019-04-14T20:00:00.505Z,48.55
2019-04-14T20:02:32.125Z,50.12
2019-04-14T20:05:07.190Z,51.70
2019-04-14T20:07:39.157Z,52.35
2019-04-14T20:10:12.632Z,53.90
2019-04-14T20:12:44.357Z,57.08
2019-04-14T20:15:17.490Z,48.65
2019-04-14T20:17:50.719Z,57.10
2019-04-14T20:20:36.894Z,48.13
2019-04-14T20:23:19.000Z,54.60
2019-04-14T20:26:01.534Z,60.10
2019-04-14T20:28:34.730Z,56.23
2019-04-14T20:31:11.862Z,54.45
2019-04-14T20:33:43.518Z,49.03
2019-04-14T20:36:15.072Z,53.52
2019-04-14T20:38:46.679Z,60.30
2019-04-14T20:41:18.212Z,53.48
2019-04-14T20:43:49.760Z,54.10
2019-04-14T20:46:21.408Z,57.80
2019-04-14T20:48:52.963Z,53.13
2019-04-14T20:51:24.503Z,49.70
2019-04-14T20:53:57.375Z,53.58
2019-04-14T20:56:28.964Z,49.95
2019-04-14T20:59:00.610Z,45.05
2019-04-14T21:01:34.627Z,51.13
2019-04-14T21:04:10.607Z,54.13
2019-04-14T21:06:43.815Z,49.08
2019-04-14T21:09:19.903Z,49.10
2019-04-14T21:11:53.027Z,43.38
2019-04-14T21:14:32.113Z,46.35
2019-04-14T21:17:09.159Z,53.50
2019-04-14T21:19:45.334Z,50.40
2019-04-14T21:22:23.126Z,52.88
2019-04-14T21:25:00.173Z,50.95
2019-04-14T21:27:39.026Z,55.85
2019-04-14T21:30:27.299Z,50.35
2019-04-14T21:33:12.694Z,45.78
2019-04-14T21:38:26.890Z,51.92
2019-04-14T21:41:02.812Z,47.55
2019-04-14T21:43:34.541Z,46.55
2019-04-14T21:46:06.146Z,48.05
2019-04-14T21:48:37.670Z,49.90
2019-04-14T21:51:10.230Z,48.52
2019-04-14T21:53:41.901Z,42.38
2019-04-14T21:56:14.009Z,55.90
2019-04-14T21:58:50.033Z,42.20
2019-04-14T22:01:42.184Z,44.80
2019-04-14T22:04:31.701Z,41.88
2019-04-14T22:07:14.255Z,45.88
2019-04-14T22:09:45.896Z,44.13
2019-04-14T22:12:19.742Z,41.25
2019-04-14T22:14:51.312Z,42.98
2019-04-14T22:17:22.811Z,39.40
2019-04-14T22:19:54.481Z,37.78
2019-04-14T22:22:26.056Z,36.77
2019-04-14T22:24:57.622Z,38.50
2019-04-14T22:27:29.186Z,37.35
2019-04-14T22:30:00.761Z,38.23
2019-04-14T22:32:32.310Z,41.00
2019-04-14T22:35:04.548Z,43.40
2019-04-14T22:37:36.542Z,39.27
2019-04-14T22:40:08.407Z,37.73
2019-04-14T22:42:39.985Z,37.10
2019-04-14T22:45:13.194Z,35.43
2019-04-14T22:47:44.720Z,33.78
2019-04-14T22:50:16.264Z,30.82
2019-04-14T22:52:47.800Z,36.48
2019-04-14T22:55:19.522Z,35.28
2019-04-14T22:57:51.102Z,34.70
2019-04-14T23:00:32.562Z,37.33
2019-04-14T23:03:21.890Z,31.68
2019-04-14T23:06:11.646Z,33.40
2019-04-14T23:08:57.062Z,33.75
2019-04-14T23:14:39.164Z,35.55
2019-04-14T23:17:18.924Z,27.22
2019-04-14T23:19:52.037Z,33.25
2019-04-14T23:22:27.940Z,27.05
2019-04-14T23:24:59.386Z,33.38
2019-04-14T23:27:30.817Z,28.80
2019-04-14T23:30:03.350Z,32.33
2019-04-14T23:32:34.971Z,32.03
2019-04-14T23:35:08.436Z,29.77
2019-04-14T23:37:40.065Z,29.82
2019-04-14T23:40:12.278Z,36.00
2019-04-14T23:42:43.837Z,25.23
2019-04-14T23:45:15.349Z,30.32
2019-04-14T23:47:48.137Z,27.40
2019-04-14T23:50:19.823Z,33.15
2019-04-14T23:52:52.428Z,31.60
2019-04-14T23:55:24.366Z,33.45
2019-04-14T23:57:57.192Z,33.90
